sensor_id;sensor_type;location;lat;lon;timestamp;P1;durP1;ratioP1;P2;durP2;ratioP2
32535;SDS011;18974;50.838;4.636;2022-08-01T00:01:52;2.65;;;1.10;;
32535;SDS011;18974;50.838;4.636;2022-08-01T00:04:18;2.10;;;0.95;;
32535;SDS011;18974;50.838;4.636;2022-08-01T00:06:44;4.10;;;1.13;;
32535;SDS011;18974;50.838;4.636;2022-08-01T00:09:09;2.65;;;1.20;;
32535;SDS011;18974;50.838;4.636;2022-08-01T00:11:35;3.35;;;1.30;;
32535;SDS011;18974;50.838;4.636;2022-08-01T00:14:01;1.90;;;1.23;;
32535;SDS011;18974;50.838;4.636;2022-08-01T00:16:26;2.10;;;1.10;;
32535;SDS011;18974;50.838;4.636;2022-08-01T00:18:52;3.47;;;1.40;;
32535;SDS011;18974;50.838;4.636;2022-08-01T00:21:19;1.25;;;0.98;;
32535;SDS011;18974;50.838;4.636;2022-08-01T00:23:45;1.60;;;1.13;;
32535;SDS011;18974;50.838;4.636;2022-08-01T00:26:11;3.13;;;1.40;;
32535;SDS011;18974;50.838;4.636;2022-08-01T00:28:38;4.60;;;1.10;;
32535;SDS011;18974;50.838;4.636;2022-08-01T00:31:03;7.07;;;1.63;;
32535;SDS011;18974;50.838;4.636;2022-08-01T00:33:29;2.97;;;1.23;;
32535;SDS011;18974;50.838;4.636;2022-08-01T00:35:55;2.80;;;1.50;;
32535;SDS011;18974;50.838;4.636;2022-08-01T00:38:21;6.63;;;1.98;;
32535;SDS011;18974;50.838;4.636;2022-08-01T00:40:47;5.15;;;1.80;;
32535;SDS011;18974;50.838;4.636;2022-08-01T00:43:13;3.08;;;2.03;;
32535;SDS011;18974;50.838;4.636;2022-08-01T00:45:39;3.97;;;1.80;;
32535;SDS011;18974;50.838;4.636;2022-08-01T00:48:05;7.53;;;2.33;;
32535;SDS011;18974;50.838;4.636;2022-08-01T00:50:30;11.27;;;3.63;;
32535;SDS011;18974;50.838;4.636;2022-08-01T00:52:57;4.57;;;2.50;;
32535;SDS011;18974;50.838;4.636;2022-08-01T00:55:23;7.05;;;3.08;;
32535;SDS011;18974;50.838;4.636;2022-08-01T00:57:49;7.10;;;3.00;;
32535;SDS011;18974;50.838;4.636;2022-08-01T01:00:16;5.28;;;2.95;;
32535;SDS011;18974;50.838;4.636;2022-08-01T01:02:41;5.55;;;3.40;;
32535;SDS011;18974;50.838;4.636;2022-08-01T01:05:08;3.75;;;2.72;;
32535;SDS011;18974;50.838;4.636;2022-08-01T01:07:44;5.38;;;2.97;;
32535;SDS011;18974;50.838;4.636;2022-08-01T01:10:21;3.92;;;2.60;;
32535;SDS011;18974;50.838;4.636;2022-08-01T01:13:09;7.10;;;3.10;;
32535;SDS011;18974;50.838;4.636;2022-08-01T01:18:20;4.40;;;2.47;;
32535;SDS011;18974;50.838;4.636;2022-08-01T01:21:13;5.00;;;2.85;;
32535;SDS011;18974;50.838;4.636;2022-08-01T01:26:40;6.85;;;2.25;;
32535;SDS011;18974;50.838;4.636;2022-08-01T01:31:53;6.45;;;2.63;;
32535;SDS011;18974;50.838;4.636;2022-08-01T01:34:24;4.28;;;2.40;;
32535;SDS011;18974;50.838;4.636;2022-08-01T01:36:52;7.18;;;3.13;;
32535;SDS011;18974;50.838;4.636;2022-08-01T01:39:20;6.72;;;3.08;;
32535;SDS011;18974;50.838;4.636;2022-08-01T01:41:47;5.38;;;3.15;;
32535;SDS011;18974;50.838;4.636;2022-08-01T01:44:14;6.55;;;2.88;;
32535;SDS011;18974;50.838;4.636;2022-08-01T01:46:42;7.40;;;3.42;;
32535;SDS011;18974;50.838;4.636;2022-08-01T01:49:08;6.72;;;2.97;;
32535;SDS011;18974;50.838;4.636;2022-08-01T01:51:35;4.43;;;2.40;;
32535;SDS011;18974;50.838;4.636;2022-08-01T01:54:03;6.63;;;3.15;;
32535;SDS011;18974;50.838;4.636;2022-08-01T01:56:30;7.57;;;2.78;;
32535;SDS011;18974;50.838;4.636;2022-08-01T01:58:57;8.98;;;2.80;;
32535;SDS011;18974;50.838;4.636;2022-08-01T02:01:27;5.85;;;2.83;;
32535;SDS011;18974;50.838;4.636;2022-08-01T02:03:55;6.72;;;2.78;;
32535;SDS011;18974;50.838;4.636;2022-08-01T02:06:21;6.43;;;2.60;;
32535;SDS011;18974;50.838;4.636;2022-08-01T02:08:49;6.22;;;3.30;;
32535;SDS011;18974;50.838;4.636;2022-08-01T02:11:17;6.63;;;2.72;;
32535;SDS011;18974;50.838;4.636;2022-08-01T02:13:46;5.95;;;2.72;;
32535;SDS011;18974;50.838;4.636;2022-08-01T02:16:19;6.47;;;2.35;;
32535;SDS011;18974;50.838;4.636;2022-08-01T02:18:47;5.00;;;2.40;;
32535;SDS011;18974;50.838;4.636;2022-08-01T02:21:13;5.70;;;3.20;;
32535;SDS011;18974;50.838;4.636;2022-08-01T02:23:45;7.22;;;3.60;;
32535;SDS011;18974;50.838;4.636;2022-08-01T02:26:13;5.75;;;3.65;;
32535;SDS011;18974;50.838;4.636;2022-08-01T02:28:45;6.10;;;3.20;;
32535;SDS011;18974;50.838;4.636;2022-08-01T02:31:21;7.05;;;3.42;;
32535;SDS011;18974;50.838;4.636;2022-08-01T02:33:58;6.55;;;3.78;;
32535;SDS011;18974;50.838;4.636;2022-08-01T02:36:27;8.45;;;4.82;;
32535;SDS011;18974;50.838;4.636;2022-08-01T02:38:55;8.60;;;4.72;;
32535;SDS011;18974;50.838;4.636;2022-08-01T02:41:23;7.00;;;4.32;;
32535;SDS011;18974;50.838;4.636;2022-08-01T02:43:51;10.02;;;4.95;;
32535;SDS011;18974;50.838;4.636;2022-08-01T02:46:30;9.05;;;4.47;;
32535;SDS011;18974;50.838;4.636;2022-08-01T02:49:05;7.53;;;4.70;;
32535;SDS011;18974;50.838;4.636;2022-08-01T02:51:34;10.00;;;5.43;;
32535;SDS011;18974;50.838;4.636;2022-08-01T02:54:01;11.38;;;5.60;;
32535;SDS011;18974;50.838;4.636;2022-08-01T02:56:30;12.05;;;5.97;;
32535;SDS011;18974;50.838;4.636;2022-08-01T02:59:10;8.88;;;5.30;;
32535;SDS011;18974;50.838;4.636;2022-08-01T03:01:41;11.55;;;5.65;;
32535;SDS011;18974;50.838;4.636;2022-08-01T03:04:09;11.82;;;5.82;;
32535;SDS011;18974;50.838;4.636;2022-08-01T03:06:37;12.70;;;5.95;;
32535;SDS011;18974;50.838;4.636;2022-08-01T03:09:04;12.25;;;5.55;;
32535;SDS011;18974;50.838;4.636;2022-08-01T03:11:31;9.65;;;5.90;;
32535;SDS011;18974;50.838;4.636;2022-08-01T03:14:02;8.85;;;5.47;;
32535;SDS011;18974;50.838;4.636;2022-08-01T03:16:31;11.90;;;5.93;;
32535;SDS011;18974;50.838;4.636;2022-08-01T03:19:00;8.65;;;5.05;;
32535;SDS011;18974;50.838;4.636;2022-08-01T03:21:27;12.07;;;5.18;;
32535;SDS011;18974;50.838;4.636;2022-08-01T03:23:54;7.85;;;5.05;;
32535;SDS011;18974;50.838;4.636;2022-08-01T03:26:30;9.63;;;5.18;;
32535;SDS011;18974;50.838;4.636;2022-08-01T03:28:59;9.43;;;5.28;;
32535;SDS011;18974;50.838;4.636;2022-08-01T03:31:36;9.18;;;4.82;;
32535;SDS011;18974;50.838;4.636;2022-08-01T03:34:03;11.85;;;5.47;;
32535;SDS011;18974;50.838;4.636;2022-08-01T03:36:30;10.05;;;5.72;;
32535;SDS011;18974;50.838;4.636;2022-08-01T03:38:58;14.80;;;5.43;;
32535;SDS011;18974;50.838;4.636;2022-08-01T03:41:28;10.40;;;5.30;;
32535;SDS011;18974;50.838;4.636;2022-08-01T03:44:00;12.23;;;5.40;;
32535;SDS011;18974;50.838;4.636;2022-08-01T03:46:29;12.18;;;5.53;;
32535;SDS011;18974;50.838;4.636;2022-08-01T03:49:03;11.65;;;5.40;;
32535;SDS011;18974;50.838;4.636;2022-08-01T03:51:35;15.05;;;5.40;;
32535;SDS011;18974;50.838;4.636;2022-08-01T03:54:03;12.23;;;6.63;;
32535;SDS011;18974;50.838;4.636;2022-08-01T03:56:30;11.38;;;6.70;;
32535;SDS011;18974;50.838;4.636;2022-08-01T03:58:58;15.05;;;7.18;;
32535;SDS011;18974;50.838;4.636;2022-08-01T04:01:25;17.38;;;9.23;;
32535;SDS011;18974;50.838;4.636;2022-08-01T04:03:53;19.00;;;9.52;;
32535;SDS011;18974;50.838;4.636;2022-08-01T04:06:19;20.50;;;9.77;;
32535;SDS011;18974;50.838;4.636;2022-08-01T04:08:45;21.70;;;10.40;;
32535;SDS011;18974;50.838;4.636;2022-08-01T04:11:20;19.73;;;10.43;;
32535;SDS011;18974;50.838;4.636;2022-08-01T04:13:47;19.38;;;10.57;;
32535;SDS011;18974;50.838;4.636;2022-08-01T04:16:13;27.80;;;11.88;;
32535;SDS011;18974;50.838;4.636;2022-08-01T04:18:39;23.83;;;12.13;;
32535;SDS011;18974;50.838;4.636;2022-08-01T04:21:04;26.27;;;13.02;;
32535;SDS011;18974;50.838;4.636;2022-08-01T04:23:30;23.80;;;12.57;;
32535;SDS011;18974;50.838;4.636;2022-08-01T04:25:57;31.58;;;13.43;;
32535;SDS011;18974;50.838;4.636;2022-08-01T04:28:27;28.38;;;13.25;;
32535;SDS011;18974;50.838;4.636;2022-08-01T04:30:55;29.90;;;14.90;;
32535;SDS011;18974;50.838;4.636;2022-08-01T04:33:22;30.55;;;13.73;;
32535;SDS011;18974;50.838;4.636;2022-08-01T04:35:49;29.48;;;13.90;;
32535;SDS011;18974;50.838;4.636;2022-08-01T04:38:17;27.70;;;14.57;;
32535;SDS011;18974;50.838;4.636;2022-08-01T04:40:46;31.73;;;13.50;;
32535;SDS011;18974;50.838;4.636;2022-08-01T04:43:13;29.23;;;15.27;;
32535;SDS011;18974;50.838;4.636;2022-08-01T04:45:39;26.95;;;13.52;;
32535;SDS011;18974;50.838;4.636;2022-08-01T04:48:09;31.10;;;13.93;;
32535;SDS011;18974;50.838;4.636;2022-08-01T04:50:35;27.60;;;13.82;;
32535;SDS011;18974;50.838;4.636;2022-08-01T04:53:02;26.17;;;13.35;;
32535;SDS011;18974;50.838;4.636;2022-08-01T04:55:28;26.70;;;14.38;;
32535;SDS011;18974;50.838;4.636;2022-08-01T04:57:56;24.23;;;12.50;;
32535;SDS011;18974;50.838;4.636;2022-08-01T05:00:22;23.25;;;12.55;;
32535;SDS011;18974;50.838;4.636;2022-08-01T05:02:47;26.35;;;13.52;;
32535;SDS011;18974;50.838;4.636;2022-08-01T05:05:13;27.58;;;13.57;;
32535;SDS011;18974;50.838;4.636;2022-08-01T05:07:39;29.50;;;12.80;;
32535;SDS011;18974;50.838;4.636;2022-08-01T05:10:05;27.85;;;13.65;;
32535;SDS011;18974;50.838;4.636;2022-08-01T05:12:31;26.50;;;13.63;;
32535;SDS011;18974;50.838;4.636;2022-08-01T05:14:57;27.50;;;13.60;;
32535;SDS011;18974;50.838;4.636;2022-08-01T05:17:23;25.05;;;11.90;;
32535;SDS011;18974;50.838;4.636;2022-08-01T05:19:49;26.35;;;12.73;;
32535;SDS011;18974;50.838;4.636;2022-08-01T05:22:15;30.80;;;13.07;;
32535;SDS011;18974;50.838;4.636;2022-08-01T05:24:41;21.35;;;10.98;;
32535;SDS011;18974;50.838;4.636;2022-08-01T05:27:07;25.92;;;12.73;;
32535;SDS011;18974;50.838;4.636;2022-08-01T05:29:33;27.13;;;13.15;;
32535;SDS011;18974;50.838;4.636;2022-08-01T05:31:59;25.67;;;12.93;;
32535;SDS011;18974;50.838;4.636;2022-08-01T05:34:25;29.50;;;12.48;;
32535;SDS011;18974;50.838;4.636;2022-08-01T05:36:51;28.73;;;14.32;;
32535;SDS011;18974;50.838;4.636;2022-08-01T05:39:17;26.13;;;13.25;;
32535;SDS011;18974;50.838;4.636;2022-08-01T05:41:43;24.83;;;13.82;;
32535;SDS011;18974;50.838;4.636;2022-08-01T05:44:08;28.02;;;13.55;;
32535;SDS011;18974;50.838;4.636;2022-08-01T05:46:34;29.65;;;13.35;;
32535;SDS011;18974;50.838;4.636;2022-08-01T05:49:01;24.80;;;13.50;;
32535;SDS011;18974;50.838;4.636;2022-08-01T05:51:27;24.02;;;14.13;;
32535;SDS011;18974;50.838;4.636;2022-08-01T05:53:54;25.38;;;13.38;;
32535;SDS011;18974;50.838;4.636;2022-08-01T05:56:20;33.55;;;15.05;;
32535;SDS011;18974;50.838;4.636;2022-08-01T05:58:46;24.02;;;12.57;;
32535;SDS011;18974;50.838;4.636;2022-08-01T06:01:13;23.05;;;12.18;;
32535;SDS011;18974;50.838;4.636;2022-08-01T06:03:38;22.88;;;12.13;;
32535;SDS011;18974;50.838;4.636;2022-08-01T06:06:04;20.83;;;10.93;;
32535;SDS011;18974;50.838;4.636;2022-08-01T06:08:30;19.45;;;11.55;;
32535;SDS011;18974;50.838;4.636;2022-08-01T06:10:57;18.10;;;9.82;;
32535;SDS011;18974;50.838;4.636;2022-08-01T06:13:23;15.20;;;9.93;;
32535;SDS011;18974;50.838;4.636;2022-08-01T06:15:48;14.73;;;8.27;;
32535;SDS011;18974;50.838;4.636;2022-08-01T06:18:14;18.08;;;8.00;;
32535;SDS011;18974;50.838;4.636;2022-08-01T06:20:40;13.77;;;7.70;;
32535;SDS011;18974;50.838;4.636;2022-08-01T06:23:06;12.82;;;6.95;;
32535;SDS011;18974;50.838;4.636;2022-08-01T06:25:32;11.60;;;6.43;;
32535;SDS011;18974;50.838;4.636;2022-08-01T06:27:58;13.05;;;6.60;;
32535;SDS011;18974;50.838;4.636;2022-08-01T06:30:25;11.80;;;6.32;;
32535;SDS011;18974;50.838;4.636;2022-08-01T06:32:51;10.68;;;6.55;;
32535;SDS011;18974;50.838;4.636;2022-08-01T06:35:16;11.48;;;5.97;;
32535;SDS011;18974;50.838;4.636;2022-08-01T06:37:42;10.27;;;5.72;;
32535;SDS011;18974;50.838;4.636;2022-08-01T06:40:10;11.70;;;5.95;;
32535;SDS011;18974;50.838;4.636;2022-08-01T06:42:36;9.45;;;5.22;;
32535;SDS011;18974;50.838;4.636;2022-08-01T06:47:29;8.35;;;5.05;;
32535;SDS011;18974;50.838;4.636;2022-08-01T06:49:54;10.02;;;5.00;;
32535;SDS011;18974;50.838;4.636;2022-08-01T06:52:20;8.98;;;4.53;;
32535;SDS011;18974;50.838;4.636;2022-08-01T06:54:46;6.60;;;4.10;;
32535;SDS011;18974;50.838;4.636;2022-08-01T06:57:11;6.90;;;3.65;;
32535;SDS011;18974;50.838;4.636;2022-08-01T06:59:37;7.85;;;4.22;;
32535;SDS011;18974;50.838;4.636;2022-08-01T07:02:03;7.13;;;3.67;;
32535;SDS011;18974;50.838;4.636;2022-08-01T07:04:28;5.85;;;4.05;;
32535;SDS011;18974;50.838;4.636;2022-08-01T07:06:54;9.82;;;4.22;;
32535;SDS011;18974;50.838;4.636;2022-08-01T07:09:20;6.85;;;3.90;;
32535;SDS011;18974;50.838;4.636;2022-08-01T07:11:45;5.00;;;3.55;;
32535;SDS011;18974;50.838;4.636;2022-08-01T07:14:11;5.00;;;3.42;;
32535;SDS011;18974;50.838;4.636;2022-08-01T07:16:37;5.72;;;4.38;;
32535;SDS011;18974;50.838;4.636;2022-08-01T07:19:02;4.40;;;3.25;;
32535;SDS011;18974;50.838;4.636;2022-08-01T07:21:28;5.72;;;3.78;;
32535;SDS011;18974;50.838;4.636;2022-08-01T07:23:54;6.68;;;4.47;;
32535;SDS011;18974;50.838;4.636;2022-08-01T07:26:19;5.13;;;3.70;;
32535;SDS011;18974;50.838;4.636;2022-08-01T07:28:45;7.35;;;4.22;;
32535;SDS011;18974;50.838;4.636;2022-08-01T07:31:11;5.03;;;4.32;;
32535;SDS011;18974;50.838;4.636;2022-08-01T07:33:36;5.65;;;3.92;;
32535;SDS011;18974;50.838;4.636;2022-08-01T07:36:02;4.10;;;3.70;;
32535;SDS011;18974;50.838;4.636;2022-08-01T07:38:28;4.88;;;3.88;;
32535;SDS011;18974;50.838;4.636;2022-08-01T07:40:54;5.90;;;4.22;;
32535;SDS011;18974;50.838;4.636;2022-08-01T07:43:20;9.43;;;4.35;;
32535;SDS011;18974;50.838;4.636;2022-08-01T07:45:45;5.72;;;4.15;;
32535;SDS011;18974;50.838;4.636;2022-08-01T07:48:18;7.18;;;4.10;;
32535;SDS011;18974;50.838;4.636;2022-08-01T07:50:48;5.82;;;4.22;;
32535;SDS011;18974;50.838;4.636;2022-08-01T07:53:15;6.13;;;4.57;;
32535;SDS011;18974;50.838;4.636;2022-08-01T07:55:41;4.15;;;3.45;;
32535;SDS011;18974;50.838;4.636;2022-08-01T07:58:07;4.97;;;3.28;;
32535;SDS011;18974;50.838;4.636;2022-08-01T08:00:32;4.18;;;3.45;;
32535;SDS011;18974;50.838;4.636;2022-08-01T08:02:58;6.32;;;3.60;;
32535;SDS011;18974;50.838;4.636;2022-08-01T08:05:24;4.70;;;3.28;;
32535;SDS011;18974;50.838;4.636;2022-08-01T08:07:51;5.63;;;3.15;;
32535;SDS011;18974;50.838;4.636;2022-08-01T08:10:16;5.85;;;3.47;;
32535;SDS011;18974;50.838;4.636;2022-08-01T08:12:42;5.93;;;4.07;;
32535;SDS011;18974;50.838;4.636;2022-08-01T08:15:08;7.32;;;3.65;;
32535;SDS011;18974;50.838;4.636;2022-08-01T08:17:34;5.35;;;3.28;;
32535;SDS011;18974;50.838;4.636;2022-08-01T08:20:00;5.88;;;3.47;;
32535;SDS011;18974;50.838;4.636;2022-08-01T08:22:27;5.00;;;3.50;;
32535;SDS011;18974;50.838;4.636;2022-08-01T08:24:53;3.00;;;2.70;;
32535;SDS011;18974;50.838;4.636;2022-08-01T08:27:18;5.45;;;3.50;;
32535;SDS011;18974;50.838;4.636;2022-08-01T08:29:44;7.22;;;2.95;;
32535;SDS011;18974;50.838;4.636;2022-08-01T08:32:10;7.65;;;3.88;;
32535;SDS011;18974;50.838;4.636;2022-08-01T08:34:35;4.10;;;3.70;;
32535;SDS011;18974;50.838;4.636;2022-08-01T08:37:01;4.05;;;3.65;;
32535;SDS011;18974;50.838;4.636;2022-08-01T08:39:27;9.93;;;4.10;;
32535;SDS011;18974;50.838;4.636;2022-08-01T08:41:54;6.75;;;3.80;;
32535;SDS011;18974;50.838;4.636;2022-08-01T08:44:23;4.05;;;3.65;;
32535;SDS011;18974;50.838;4.636;2022-08-01T08:46:50;7.40;;;3.72;;
32535;SDS011;18974;50.838;4.636;2022-08-01T08:49:24;5.88;;;3.90;;
32535;SDS011;18974;50.838;4.636;2022-08-01T08:51:52;5.18;;;4.32;;
32535;SDS011;18974;50.838;4.636;2022-08-01T08:54:21;8.23;;;3.85;;
32535;SDS011;18974;50.838;4.636;2022-08-01T08:56:49;4.28;;;3.22;;
32535;SDS011;18974;50.838;4.636;2022-08-01T08:59:16;4.45;;;3.60;;
32535;SDS011;18974;50.838;4.636;2022-08-01T09:01:42;4.28;;;3.75;;
32535;SDS011;18974;50.838;4.636;2022-08-01T09:04:08;5.80;;;3.90;;
32535;SDS011;18974;50.838;4.636;2022-08-01T09:06:35;4.05;;;3.65;;
32535;SDS011;18974;50.838;4.636;2022-08-01T09:09:02;4.80;;;3.90;;
32535;SDS011;18974;50.838;4.636;2022-08-01T09:11:28;4.05;;;3.65;;
32535;SDS011;18974;50.838;4.636;2022-08-01T09:14:04;4.70;;;3.53;;
32535;SDS011;18974;50.838;4.636;2022-08-01T09:16:30;3.45;;;3.15;;
32535;SDS011;18974;50.838;4.636;2022-08-01T09:19:13;2.90;;;2.65;;
32535;SDS011;18974;50.838;4.636;2022-08-01T09:21:55;3.77;;;3.00;;
32535;SDS011;18974;50.838;4.636;2022-08-01T09:24:26;5.85;;;2.72;;
32535;SDS011;18974;50.838;4.636;2022-08-01T09:26:54;4.18;;;2.92;;
32535;SDS011;18974;50.838;4.636;2022-08-01T09:29:24;4.13;;;2.53;;
32535;SDS011;18974;50.838;4.636;2022-08-01T09:31:56;3.20;;;2.90;;
32535;SDS011;18974;50.838;4.636;2022-08-01T09:34:28;2.75;;;2.50;;
32535;SDS011;18974;50.838;4.636;2022-08-01T09:36:59;2.95;;;2.70;;
32535;SDS011;18974;50.838;4.636;2022-08-01T09:39:27;3.17;;;2.67;;
32535;SDS011;18974;50.838;4.636;2022-08-01T09:41:55;3.42;;;2.97;;
32535;SDS011;18974;50.838;4.636;2022-08-01T09:47:03;4.15;;;3.17;;
32535;SDS011;18974;50.838;4.636;2022-08-01T09:49:33;7.00;;;3.15;;
32535;SDS011;18974;50.838;4.636;2022-08-01T09:54:39;4.03;;;3.50;;
32535;SDS011;18974;50.838;4.636;2022-08-01T09:57:08;3.55;;;3.22;;
32535;SDS011;18974;50.838;4.636;2022-08-01T09:59:34;3.53;;;3.25;;
32535;SDS011;18974;50.838;4.636;2022-08-01T10:02:06;3.17;;;2.95;;
32535;SDS011;18974;50.838;4.636;2022-08-01T10:04:33;3.38;;;2.90;;
32535;SDS011;18974;50.838;4.636;2022-08-01T10:07:03;2.55;;;2.35;;
32535;SDS011;18974;50.838;4.636;2022-08-01T10:09:33;3.65;;;2.50;;
32535;SDS011;18974;50.838;4.636;2022-08-01T10:12:00;2.47;;;2.28;;
32535;SDS011;18974;50.838;4.636;2022-08-01T10:14:28;4.15;;;2.55;;
32535;SDS011;18974;50.838;4.636;2022-08-01T10:16:55;4.57;;;2.70;;
32535;SDS011;18974;50.838;4.636;2022-08-01T10:19:25;2.50;;;2.30;;
32535;SDS011;18974;50.838;4.636;2022-08-01T10:21:53;3.58;;;2.38;;
32535;SDS011;18974;50.838;4.636;2022-08-01T10:24:20;3.20;;;3.00;;
32535;SDS011;18974;50.838;4.636;2022-08-01T10:26:51;3.22;;;2.75;;
32535;SDS011;18974;50.838;4.636;2022-08-01T10:29:20;3.30;;;2.55;;
32535;SDS011;18974;50.838;4.636;2022-08-01T10:31:47;3.53;;;2.63;;
32535;SDS011;18974;50.838;4.636;2022-08-01T10:34:13;2.50;;;2.30;;
32535;SDS011;18974;50.838;4.636;2022-08-01T10:36:42;4.60;;;2.63;;
32535;SDS011;18974;50.838;4.636;2022-08-01T10:39:12;2.97;;;1.88;;
32535;SDS011;18974;50.838;4.636;2022-08-01T10:41:39;2.97;;;2.05;;
32535;SDS011;18974;50.838;4.636;2022-08-01T10:44:08;2.03;;;1.80;;
32535;SDS011;18974;50.838;4.636;2022-08-01T10:46:38;3.08;;;1.90;;
32535;SDS011;18974;50.838;4.636;2022-08-01T10:49:10;5.28;;;2.10;;
32535;SDS011;18974;50.838;4.636;2022-08-01T10:51:38;1.83;;;1.73;;
32535;SDS011;18974;50.838;4.636;2022-08-01T10:54:05;2.75;;;1.92;;
32535;SDS011;18974;50.838;4.636;2022-08-01T10:56:45;2.58;;;2.00;;
32535;SDS011;18974;50.838;4.636;2022-08-01T10:59:20;1.77;;;1.67;;
32535;SDS011;18974;50.838;4.636;2022-08-01T11:02:01;3.63;;;2.30;;
32535;SDS011;18974;50.838;4.636;2022-08-01T11:10:09;3.17;;;1.80;;
32535;SDS011;18974;50.838;4.636;2022-08-01T11:12:41;7.28;;;1.90;;
32535;SDS011;18974;50.838;4.636;2022-08-01T11:17:40;3.90;;;1.90;;
32535;SDS011;18974;50.838;4.636;2022-08-01T11:30:41;2.00;;;1.90;;
32535;SDS011;18974;50.838;4.636;2022-08-01T11:38:41;2.15;;;1.95;;
32535;SDS011;18974;50.838;4.636;2022-08-01T11:54:52;2.30;;;1.10;;
32535;SDS011;18974;50.838;4.636;2022-08-01T11:57:27;4.03;;;1.15;;
32535;SDS011;18974;50.838;4.636;2022-08-01T11:59:56;0.95;;;0.90;;
32535;SDS011;18974;50.838;4.636;2022-08-01T12:02:32;1.73;;;1.10;;
32535;SDS011;18974;50.838;4.636;2022-08-01T12:05:03;1.05;;;0.80;;
32535;SDS011;18974;50.838;4.636;2022-08-01T12:07:41;2.38;;;1.00;;
32535;SDS011;18974;50.838;4.636;2022-08-01T12:10:12;2.80;;;0.80;;
32535;SDS011;18974;50.838;4.636;2022-08-01T12:12:46;3.53;;;0.77;;
32535;SDS011;18974;50.838;4.636;2022-08-01T12:15:16;0.98;;;0.75;;
32535;SDS011;18974;50.838;4.636;2022-08-01T12:20:10;0.60;;;0.60;;
32535;SDS011;18974;50.838;4.636;2022-08-01T12:22:38;3.20;;;1.02;;
32535;SDS011;18974;50.838;4.636;2022-08-01T12:25:11;2.35;;;0.60;;
32535;SDS011;18974;50.838;4.636;2022-08-01T12:27:41;1.48;;;1.02;;
32535;SDS011;18974;50.838;4.636;2022-08-01T12:30:10;1.05;;;0.70;;
32535;SDS011;18974;50.838;4.636;2022-08-01T12:32:38;2.78;;;0.65;;
32535;SDS011;18974;50.838;4.636;2022-08-01T12:37:39;1.88;;;0.75;;
32535;SDS011;18974;50.838;4.636;2022-08-01T12:40:13;1.45;;;0.80;;
32535;SDS011;18974;50.838;4.636;2022-08-01T12:42:41;2.73;;;0.93;;
32535;SDS011;18974;50.838;4.636;2022-08-01T12:45:09;1.40;;;0.70;;
32535;SDS011;18974;50.838;4.636;2022-08-01T12:47:37;7.13;;;0.98;;
32535;SDS011;18974;50.838;4.636;2022-08-01T12:50:08;1.15;;;0.80;;
32535;SDS011;18974;50.838;4.636;2022-08-01T12:52:38;2.60;;;0.60;;
32535;SDS011;18974;50.838;4.636;2022-08-01T12:55:08;1.75;;;0.63;;
32535;SDS011;18974;50.838;4.636;2022-08-01T12:57:39;0.63;;;0.63;;
32535;SDS011;18974;50.838;4.636;2022-08-01T13:02:47;2.83;;;0.80;;
32535;SDS011;18974;50.838;4.636;2022-08-01T13:05:14;29.77;;;3.47;;
32535;SDS011;18974;50.838;4.636;2022-08-01T13:07:42;45.75;;;2.65;;
32535;SDS011;18974;50.838;4.636;2022-08-01T13:10:08;6.72;;;1.20;;
32535;SDS011;18974;50.838;4.636;2022-08-01T13:12:36;1.60;;;0.80;;
32535;SDS011;18974;50.838;4.636;2022-08-01T13:15:18;3.90;;;0.80;;
32535;SDS011;18974;50.838;4.636;2022-08-01T13:17:49;0.75;;;0.63;;
32535;SDS011;18974;50.838;4.636;2022-08-01T13:22:48;1.25;;;0.70;;
32535;SDS011;18974;50.838;4.636;2022-08-01T13:25:15;1.50;;;0.77;;
32535;SDS011;18974;50.838;4.636;2022-08-01T13:27:41;2.00;;;0.70;;
32535;SDS011;18974;50.838;4.636;2022-08-01T13:30:25;1.35;;;0.60;;
32535;SDS011;18974;50.838;4.636;2022-08-01T13:32:59;3.70;;;0.80;;
32535;SDS011;18974;50.838;4.636;2022-08-01T13:35:25;2.17;;;0.85;;
32535;SDS011;18974;50.838;4.636;2022-08-01T13:37:51;2.08;;;0.75;;
32535;SDS011;18974;50.838;4.636;2022-08-01T13:40:24;1.15;;;0.80;;
32535;SDS011;18974;50.838;4.636;2022-08-01T13:42:51;1.15;;;0.70;;
32535;SDS011;18974;50.838;4.636;2022-08-01T13:45:17;2.13;;;0.70;;
32535;SDS011;18974;50.838;4.636;2022-08-01T13:47:43;2.42;;;1.00;;
32535;SDS011;18974;50.838;4.636;2022-08-01T13:50:09;2.88;;;0.90;;
32535;SDS011;18974;50.838;4.636;2022-08-01T13:52:34;2.35;;;0.70;;
32535;SDS011;18974;50.838;4.636;2022-08-01T13:55:00;4.43;;;0.80;;
32535;SDS011;18974;50.838;4.636;2022-08-01T13:57:26;22.67;;;1.55;;
32535;SDS011;18974;50.838;4.636;2022-08-01T13:59:52;3.63;;;0.75;;
32535;SDS011;18974;50.838;4.636;2022-08-01T14:02:18;1.10;;;0.70;;
32535;SDS011;18974;50.838;4.636;2022-08-01T14:04:44;4.60;;;0.73;;
32535;SDS011;18974;50.838;4.636;2022-08-01T14:07:09;0.85;;;0.75;;
32535;SDS011;18974;50.838;4.636;2022-08-01T14:09:44;2.17;;;0.70;;
32535;SDS011;18974;50.838;4.636;2022-08-01T14:12:10;3.40;;;0.60;;
32535;SDS011;18974;50.838;4.636;2022-08-01T14:14:36;2.10;;;0.85;;
32535;SDS011;18974;50.838;4.636;2022-08-01T14:17:03;16.35;;;1.08;;
32535;SDS011;18974;50.838;4.636;2022-08-01T14:19:29;22.50;;;2.10;;
32535;SDS011;18974;50.838;4.636;2022-08-01T14:21:55;7.78;;;0.88;;
32535;SDS011;18974;50.838;4.636;2022-08-01T14:24:22;5.15;;;0.80;;
32535;SDS011;18974;50.838;4.636;2022-08-01T14:26:48;5.50;;;0.98;;
32535;SDS011;18974;50.838;4.636;2022-08-01T14:29:14;2.92;;;0.90;;
32535;SDS011;18974;50.838;4.636;2022-08-01T14:31:39;1.60;;;0.60;;
32535;SDS011;18974;50.838;4.636;2022-08-01T14:34:05;3.63;;;0.90;;
32535;SDS011;18974;50.838;4.636;2022-08-01T14:36:31;0.63;;;0.52;;
32535;SDS011;18974;50.838;4.636;2022-08-01T14:38:57;1.30;;;0.82;;
32535;SDS011;18974;50.838;4.636;2022-08-01T14:41:23;4.13;;;0.88;;
32535;SDS011;18974;50.838;4.636;2022-08-01T14:43:49;1.02;;;0.70;;
32535;SDS011;18974;50.838;4.636;2022-08-01T14:46:14;0.70;;;0.70;;
32535;SDS011;18974;50.838;4.636;2022-08-01T14:48:40;3.28;;;0.75;;
32535;SDS011;18974;50.838;4.636;2022-08-01T14:51:06;2.13;;;0.80;;
32535;SDS011;18974;50.838;4.636;2022-08-01T14:53:32;4.22;;;0.70;;
32535;SDS011;18974;50.838;4.636;2022-08-01T14:56:00;2.28;;;0.68;;
32535;SDS011;18974;50.838;4.636;2022-08-01T14:58:25;58.88;;;2.55;;
32535;SDS011;18974;50.838;4.636;2022-08-01T15:00:51;0.95;;;0.73;;
32535;SDS011;18974;50.838;4.636;2022-08-01T15:03:19;2.67;;;0.80;;
32535;SDS011;18974;50.838;4.636;2022-08-01T15:05:46;2.00;;;0.80;;
32535;SDS011;18974;50.838;4.636;2022-08-01T15:08:11;2.28;;;1.00;;
32535;SDS011;18974;50.838;4.636;2022-08-01T15:10:37;2.00;;;0.70;;
32535;SDS011;18974;50.838;4.636;2022-08-01T15:13:03;2.08;;;0.80;;
32535;SDS011;18974;50.838;4.636;2022-08-01T15:15:29;0.93;;;0.80;;
32535;SDS011;18974;50.838;4.636;2022-08-01T15:17:54;1.23;;;0.55;;
32535;SDS011;18974;50.838;4.636;2022-08-01T15:20:20;1.48;;;0.65;;
32535;SDS011;18974;50.838;4.636;2022-08-01T15:22:46;2.47;;;0.95;;
32535;SDS011;18974;50.838;4.636;2022-08-01T15:25:12;2.05;;;0.93;;
32535;SDS011;18974;50.838;4.636;2022-08-01T15:27:38;1.65;;;0.70;;
32535;SDS011;18974;50.838;4.636;2022-08-01T15:30:04;20.27;;;1.30;;
32535;SDS011;18974;50.838;4.636;2022-08-01T15:32:30;10.35;;;1.45;;
32535;SDS011;18974;50.838;4.636;2022-08-01T15:34:56;2.67;;;0.90;;
32535;SDS011;18974;50.838;4.636;2022-08-01T15:37:21;3.17;;;0.90;;
32535;SDS011;18974;50.838;4.636;2022-08-01T15:39:47;3.10;;;0.82;;
32535;SDS011;18974;50.838;4.636;2022-08-01T15:42:14;1.17;;;0.68;;
32535;SDS011;18974;50.838;4.636;2022-08-01T15:44:40;1.63;;;0.80;;
32535;SDS011;18974;50.838;4.636;2022-08-01T15:47:06;2.05;;;0.80;;
32535;SDS011;18974;50.838;4.636;2022-08-01T15:49:33;1.88;;;0.70;;
32535;SDS011;18974;50.838;4.636;2022-08-01T15:52:00;2.35;;;1.00;;